createdAt,value
2023-05-22T00:01:53.070Z,17.70
2023-05-22T00:04:21.413Z,18.23
2023-05-22T00:06:49.415Z,19.42
2023-05-22T00:09:16.681Z,20.40
2023-05-22T00:11:45.002Z,20.33
2023-05-22T00:14:13.741Z,21.10
2023-05-22T00:16:41.540Z,22.05
2023-05-22T00:19:19.096Z,22.23
2023-05-22T00:21:47.347Z,21.20
2023-05-22T00:24:14.230Z,20.35
2023-05-22T00:26:41.204Z,22.33
2023-05-22T00:29:08.133Z,22.15
2023-05-22T00:31:35.189Z,22.42
2023-05-22T00:34:02.499Z,22.25
2023-05-22T00:36:30.682Z,20.95
2023-05-22T00:38:58.634Z,19.27
2023-05-22T00:41:26.178Z,21.60
2023-05-22T00:43:53.300Z,22.25
2023-05-22T00:46:38.830Z,21.63
2023-05-22T00:49:06.842Z,21.65
2023-05-22T00:51:33.967Z,23.70
2023-05-22T00:54:01.042Z,23.65
2023-05-22T00:56:29.375Z,23.75
2023-05-22T00:58:56.681Z,23.52
2023-05-22T01:01:26.427Z,24.35
2023-05-22T01:03:54.070Z,24.80
2023-05-22T01:06:24.530Z,25.38
2023-05-22T01:08:51.489Z,25.00
2023-05-22T01:11:23.740Z,25.45
2023-05-22T01:14:14.960Z,25.65
2023-05-22T01:17:14.506Z,26.50
2023-05-22T01:20:14.487Z,24.50
2023-05-22T01:23:19.035Z,25.38
2023-05-22T01:26:14.136Z,23.92
2023-05-22T01:29:28.914Z,25.27
2023-05-22T01:31:59.289Z,25.70
2023-05-22T01:34:28.048Z,25.95
2023-05-22T01:36:56.508Z,26.83
2023-05-22T01:39:24.818Z,27.25
2023-05-22T01:41:52.115Z,26.63
2023-05-22T01:44:19.093Z,26.25
2023-05-22T01:46:46.371Z,27.30
2023-05-22T01:49:13.361Z,25.65
2023-05-22T01:55:34.130Z,26.88
2023-05-22T01:58:14.797Z,25.23
2023-05-22T02:00:46.391Z,25.13
2023-05-22T02:03:20.799Z,26.15
2023-05-22T02:05:51.915Z,26.80
2023-05-22T02:08:21.839Z,27.80
2023-05-22T02:10:55.093Z,28.40
2023-05-22T02:13:22.806Z,27.80
2023-05-22T02:15:50.699Z,28.38
2023-05-22T02:18:17.729Z,29.88
2023-05-22T02:20:46.951Z,31.25
2023-05-22T02:23:14.202Z,30.30
2023-05-22T02:25:41.335Z,28.88
2023-05-22T02:28:08.368Z,30.77
2023-05-22T02:30:35.404Z,29.45
2023-05-22T02:33:06.117Z,31.02
2023-05-22T02:35:33.110Z,31.20
2023-05-22T02:38:00.078Z,31.73
2023-05-22T02:40:27.231Z,30.15
2023-05-22T02:42:54.170Z,29.95
2023-05-22T02:45:21.521Z,31.02
2023-05-22T02:47:48.476Z,29.52
2023-05-22T02:50:15.614Z,30.83
2023-05-22T02:52:42.813Z,30.95
2023-05-22T02:55:10.527Z,32.58
2023-05-22T02:57:37.744Z,32.45
2023-05-22T03:00:11.758Z,31.70
2023-05-22T03:02:39.305Z,30.23
2023-05-22T03:05:07.481Z,30.70
2023-05-22T03:07:35.064Z,31.50
2023-05-22T03:10:02.096Z,32.45
2023-05-22T03:12:29.112Z,31.63
2023-05-22T03:14:56.141Z,31.17
2023-05-22T03:17:23.386Z,30.45
2023-05-22T03:19:52.472Z,31.77
2023-05-22T03:22:19.419Z,30.92
2023-05-22T03:24:48.120Z,30.42
2023-05-22T03:27:19.815Z,27.75
2023-05-22T03:29:46.774Z,28.25
2023-05-22T03:32:13.852Z,27.63
2023-05-22T03:34:41.639Z,29.83
2023-05-22T03:37:09.336Z,27.60
2023-05-22T03:39:36.974Z,27.52
2023-05-22T03:42:04.225Z,27.05
2023-05-22T03:44:31.330Z,27.60
2023-05-22T03:46:58.266Z,29.10
2023-05-22T03:49:25.401Z,28.38
2023-05-22T03:51:52.388Z,28.30
2023-05-22T03:54:19.576Z,28.80
2023-05-22T03:56:46.696Z,28.33
2023-05-22T03:59:13.667Z,28.85
2023-05-22T04:01:40.754Z,28.85
2023-05-22T04:04:12.290Z,30.10
2023-05-22T04:06:43.487Z,27.63
2023-05-22T04:11:42.341Z,27.47
2023-05-22T04:14:09.955Z,28.02
2023-05-22T04:16:36.909Z,28.75
2023-05-22T04:19:05.349Z,29.70
2023-05-22T04:21:34.493Z,28.88
2023-05-22T04:24:02.040Z,27.58
2023-05-22T04:26:33.260Z,29.30
2023-05-22T04:29:00.434Z,28.00
2023-05-22T04:31:27.515Z,29.88
2023-05-22T04:33:56.079Z,28.40
2023-05-22T04:36:26.169Z,28.80
2023-05-22T04:38:54.559Z,27.42
2023-05-22T04:41:26.878Z,29.00
2023-05-22T04:43:54.304Z,28.27
2023-05-22T04:46:21.556Z,27.52
2023-05-22T04:48:48.885Z,29.02
2023-05-22T04:51:16.119Z,30.30
2023-05-22T04:53:43.049Z,29.67
2023-05-22T04:56:11.761Z,28.73
2023-05-22T04:58:40.494Z,30.13
2023-05-22T05:01:07.473Z,29.27
2023-05-22T05:03:34.976Z,27.85
2023-05-22T05:06:01.873Z,28.25
2023-05-22T05:08:29.813Z,27.67
2023-05-22T05:10:56.940Z,27.42
2023-05-22T05:13:24.155Z,27.05
2023-05-22T05:15:51.967Z,26.25
2023-05-22T05:18:20.507Z,26.50
2023-05-22T05:20:47.810Z,26.95
2023-05-22T05:23:15.522Z,27.15
2023-05-22T05:25:42.755Z,26.63
2023-05-22T05:28:11.795Z,26.77
2023-05-22T05:30:45.048Z,25.77
2023-05-22T05:33:13.284Z,25.77
2023-05-22T05:35:42.682Z,25.50
2023-05-22T05:38:10.162Z,23.55
2023-05-22T05:40:37.506Z,23.35
2023-05-22T05:43:05.861Z,23.92
2023-05-22T05:45:33.654Z,24.05
2023-05-22T05:48:00.719Z,21.88
2023-05-22T05:50:27.762Z,21.77
2023-05-22T05:52:54.674Z,21.50
2023-05-22T05:55:21.996Z,22.55
2023-05-22T05:57:49.108Z,21.35
2023-05-22T06:00:17.429Z,21.20
2023-05-22T06:02:48.241Z,19.90
2023-05-22T06:05:19.332Z,20.73
2023-05-22T06:07:46.586Z,20.92
2023-05-22T06:10:25.799Z,20.60
2023-05-22T06:12:54.050Z,19.58
2023-05-22T06:15:21.328Z,20.60
2023-05-22T06:17:48.274Z,20.42
2023-05-22T06:20:15.809Z,19.50
2023-05-22T06:22:42.886Z,18.67
2023-05-22T06:25:10.154Z,19.23
2023-05-22T06:27:37.315Z,18.95
2023-05-22T06:30:04.966Z,18.42
2023-05-22T06:32:32.515Z,18.33
2023-05-22T06:34:59.816Z,18.50
2023-05-22T06:37:26.828Z,17.58
2023-05-22T06:39:53.929Z,17.80
2023-05-22T06:42:20.777Z,16.27
2023-05-22T06:44:47.696Z,16.75
2023-05-22T06:47:14.871Z,15.82
2023-05-22T06:49:43.049Z,16.33
2023-05-22T06:52:10.611Z,15.55
2023-05-22T06:54:37.659Z,15.15
2023-05-22T06:57:04.848Z,16.27
2023-05-22T06:59:33.361Z,16.40
2023-05-22T07:02:00.374Z,16.73
2023-05-22T07:04:27.279Z,16.42
2023-05-22T07:06:54.227Z,15.50
2023-05-22T07:09:22.112Z,17.27
2023-05-22T07:11:49.628Z,16.63
2023-05-22T07:14:16.650Z,15.25
2023-05-22T07:16:44.160Z,16.35
2023-05-22T07:19:12.182Z,15.02
2023-05-22T07:21:41.693Z,14.38
2023-05-22T07:24:08.668Z,15.45
2023-05-22T07:26:36.993Z,16.67
2023-05-22T07:29:04.848Z,15.52
2023-05-22T07:31:34.056Z,14.63
2023-05-22T07:34:01.224Z,14.50
2023-05-22T07:36:28.440Z,16.42
2023-05-22T07:38:55.514Z,14.48
2023-05-22T07:41:22.881Z,14.00
2023-05-22T07:43:50.240Z,13.68
2023-05-22T07:46:24.490Z,13.52
2023-05-22T07:49:00.945Z,14.02
2023-05-22T07:51:28.506Z,13.95
2023-05-22T07:53:55.661Z,13.50
2023-05-22T07:56:22.722Z,14.00
2023-05-22T07:58:50.396Z,13.20
2023-05-22T08:01:17.949Z,13.85
2023-05-22T08:03:45.240Z,13.60
2023-05-22T08:06:12.864Z,12.15
2023-05-22T08:08:40.205Z,14.45
2023-05-22T08:11:07.747Z,13.20
2023-05-22T08:13:34.937Z,12.15
2023-05-22T08:16:02.025Z,13.00
2023-05-22T08:18:29.945Z,12.27
2023-05-22T08:20:57.665Z,12.60
2023-05-22T08:23:27.001Z,12.27
2023-05-22T08:25:54.430Z,12.48
2023-05-22T08:28:21.503Z,11.73
2023-05-22T08:30:49.592Z,12.82
2023-05-22T08:33:16.823Z,11.77
2023-05-22T08:35:44.258Z,11.77
2023-05-22T08:38:11.439Z,12.18
2023-05-22T08:40:40.790Z,12.15
2023-05-22T08:43:09.552Z,11.80
2023-05-22T08:45:42.567Z,12.18
2023-05-22T08:48:20.736Z,12.35
2023-05-22T08:50:57.500Z,12.50
2023-05-22T08:53:26.734Z,12.52
2023-05-22T08:55:54.513Z,12.25
2023-05-22T08:58:22.657Z,12.48
2023-05-22T09:00:50.009Z,13.00
2023-05-22T09:03:18.599Z,12.80
2023-05-22T09:05:46.109Z,13.10
2023-05-22T09:08:20.549Z,13.05
2023-05-22T09:10:50.865Z,14.32
2023-05-22T09:13:31.804Z,13.73
2023-05-22T09:16:16.873Z,15.70
2023-05-22T09:18:58.222Z,14.52
2023-05-22T09:21:30.841Z,15.15
2023-05-22T09:24:02.098Z,13.77
2023-05-22T09:26:29.736Z,12.88
2023-05-22T09:28:59.025Z,12.45
2023-05-22T09:31:26.353Z,12.20
2023-05-22T09:33:55.209Z,12.43
2023-05-22T09:36:30.204Z,12.50
2023-05-22T09:38:58.306Z,12.10
2023-05-22T09:41:25.464Z,10.85
2023-05-22T09:43:52.447Z,12.77
2023-05-22T09:46:19.392Z,13.00
2023-05-22T09:48:52.589Z,13.70
2023-05-22T09:51:23.974Z,13.80
2023-05-22T09:53:52.489Z,13.73
2023-05-22T09:56:37.915Z,12.77
2023-05-22T09:59:10.039Z,13.07
2023-05-22T10:01:39.914Z,13.50
2023-05-22T10:04:13.125Z,13.00
2023-05-22T10:06:40.954Z,13.27
2023-05-22T10:09:12.620Z,12.98
2023-05-22T10:11:39.952Z,12.23
2023-05-22T10:14:08.854Z,12.27
2023-05-22T10:16:39.929Z,12.35
2023-05-22T10:19:08.744Z,10.10
2023-05-22T10:21:37.242Z,10.25
2023-05-22T10:24:07.201Z,8.63
2023-05-22T10:26:34.320Z,7.85
2023-05-22T10:29:22.666Z,9.40
2023-05-22T10:32:03.062Z,8.38
2023-05-22T10:34:48.217Z,8.73
2023-05-22T10:37:24.212Z,8.18
2023-05-22T10:40:10.886Z,8.10
2023-05-22T10:42:39.136Z,6.30
2023-05-22T10:45:11.123Z,7.38
2023-05-22T10:47:38.351Z,5.97
2023-05-22T10:50:38.700Z,5.53
2023-05-22T10:55:51.076Z,7.35
2023-05-22T10:58:19.128Z,7.18
2023-05-22T11:14:32.708Z,8.40
2023-05-22T11:17:02.512Z,8.90
2023-05-22T11:27:47.668Z,10.15
2023-05-22T11:30:15.977Z,9.70
2023-05-22T11:35:30.388Z,7.97
2023-05-22T11:43:43.080Z,8.52
2023-05-22T11:46:11.127Z,8.48
2023-05-22T11:48:46.510Z,7.72
2023-05-22T11:51:13.725Z,8.30
2023-05-22T11:53:42.895Z,8.15
2023-05-22T11:56:09.781Z,6.28
2023-05-22T11:58:36.855Z,7.00
2023-05-22T12:01:05.193Z,6.82
2023-05-22T12:03:32.744Z,7.35
2023-05-22T12:06:01.795Z,6.65
2023-05-22T12:08:28.942Z,6.80
2023-05-22T12:10:57.228Z,7.20
2023-05-22T12:13:26.373Z,8.20
2023-05-22T12:15:56.147Z,8.55
2023-05-22T12:18:26.056Z,9.85
2023-05-22T12:20:55.601Z,8.23
2023-05-22T12:23:26.542Z,9.10
2023-05-22T12:26:18.274Z,8.02
2023-05-22T12:28:45.204Z,9.18
2023-05-22T12:31:19.821Z,8.98
2023-05-22T12:33:46.603Z,8.10
2023-05-22T12:36:13.983Z,9.13
2023-05-22T12:38:41.519Z,9.13
2023-05-22T12:41:08.603Z,9.75
2023-05-22T12:43:35.992Z,7.55
2023-05-22T12:46:03.168Z,7.25
2023-05-22T12:48:30.125Z,7.60
2023-05-22T12:50:57.053Z,7.82
2023-05-22T12:53:24.294Z,6.78
2023-05-22T12:55:51.085Z,6.82
2023-05-22T12:58:17.974Z,7.30
2023-05-22T13:00:47.081Z,6.90
2023-05-22T13:03:14.096Z,7.32
2023-05-22T13:05:42.212Z,7.60
2023-05-22T13:08:09.547Z,7.60
2023-05-22T13:10:36.591Z,7.15
2023-05-22T13:13:03.957Z,6.60
2023-05-22T13:15:32.584Z,6.65
2023-05-22T13:17:59.753Z,5.63
2023-05-22T13:20:26.705Z,5.03
2023-05-22T13:22:53.790Z,5.10
2023-05-22T13:25:20.794Z,13.02
2023-05-22T13:27:47.679Z,5.22
2023-05-22T13:30:15.028Z,5.05
2023-05-22T13:32:41.964Z,5.15
2023-05-22T13:35:11.409Z,5.00
2023-05-22T13:37:39.632Z,5.10
2023-05-22T13:40:07.251Z,4.70
2023-05-22T13:42:34.177Z,5.63
2023-05-22T13:45:04.858Z,4.88
2023-05-22T13:47:31.802Z,4.43
2023-05-22T13:49:58.675Z,5.13
2023-05-22T13:52:25.734Z,4.90
2023-05-22T13:54:55.320Z,4.90
2023-05-22T13:57:22.371Z,5.68
2023-05-22T13:59:51.813Z,5.05
2023-05-22T14:02:20.726Z,5.13
2023-05-22T14:04:52.820Z,5.28
2023-05-22T14:07:20.008Z,5.28
2023-05-22T14:09:50.087Z,5.57
2023-05-22T14:12:17.051Z,5.38
2023-05-22T14:14:45.968Z,6.38
2023-05-22T14:19:59.827Z,7.78
2023-05-22T14:22:30.596Z,7.47
2023-05-22T14:24:58.251Z,5.78
2023-05-22T14:27:25.181Z,5.45
2023-05-22T14:29:52.789Z,6.10
2023-05-22T14:32:19.785Z,5.75
2023-05-22T14:34:46.756Z,5.93
2023-05-22T14:39:52.341Z,5.82
2023-05-22T14:42:19.389Z,6.20
2023-05-22T14:53:03.385Z,5.70
2023-05-22T14:55:31.584Z,5.55
2023-05-22T14:57:58.531Z,4.82
2023-05-22T15:00:25.485Z,5.70
2023-05-22T15:02:52.557Z,4.25
2023-05-22T15:05:19.609Z,4.80
2023-05-22T15:07:48.377Z,5.18
2023-05-22T15:10:16.861Z,3.90
2023-05-22T15:12:43.695Z,5.13
2023-05-22T15:15:15.592Z,4.60
2023-05-22T15:17:43.130Z,4.32
2023-05-22T15:20:11.020Z,4.10
2023-05-22T15:22:37.952Z,4.57
2023-05-22T15:25:09.724Z,3.95
2023-05-22T15:27:38.346Z,4.40
2023-05-22T15:32:56.304Z,3.65
2023-05-22T15:35:23.508Z,3.90
2023-05-22T15:37:50.460Z,3.33
2023-05-22T15:40:22.439Z,3.28
2023-05-22T15:42:52.416Z,3.60
2023-05-22T15:45:19.384Z,3.80
2023-05-22T15:47:47.102Z,3.53
2023-05-22T15:50:15.131Z,3.10
2023-05-22T15:52:42.105Z,3.75
2023-05-22T15:55:09.916Z,3.60
2023-05-22T15:57:37.506Z,3.38
2023-05-22T16:00:06.734Z,3.20
2023-05-22T16:02:33.931Z,3.28
2023-05-22T16:05:02.700Z,2.95
2023-05-22T16:10:06.310Z,3.20
2023-05-22T16:12:33.175Z,3.00
2023-05-22T16:15:01.017Z,2.78
2023-05-22T16:17:29.514Z,4.05
2023-05-22T16:19:56.392Z,3.03
2023-05-22T16:22:24.732Z,3.25
2023-05-22T16:24:58.071Z,2.97
2023-05-22T16:27:24.972Z,2.90
2023-05-22T16:29:51.822Z,3.13
2023-05-22T16:32:18.682Z,3.30
2023-05-22T16:34:47.068Z,2.78
2023-05-22T16:37:14.015Z,3.08
2023-05-22T16:39:41.416Z,3.45
2023-05-22T16:42:08.406Z,3.45
2023-05-22T16:44:35.503Z,3.55
2023-05-22T16:47:02.479Z,3.42
2023-05-22T16:49:29.730Z,3.45
2023-05-22T16:51:58.886Z,3.28
2023-05-22T16:57:04.296Z,2.97
2023-05-22T16:59:31.218Z,3.50
2023-05-22T17:01:58.214Z,3.20
2023-05-22T17:04:25.013Z,3.33
2023-05-22T17:06:53.751Z,3.25
2023-05-22T17:09:21.963Z,3.67
2023-05-22T17:11:50.137Z,3.92
2023-05-22T17:14:16.999Z,4.53
2023-05-22T17:16:43.861Z,4.05
2023-05-22T17:19:11.149Z,3.78
2023-05-22T17:21:38.008Z,4.60
2023-05-22T17:24:05.608Z,4.38
2023-05-22T17:26:34.354Z,4.63
2023-05-22T17:29:03.257Z,4.65
2023-05-22T17:31:31.619Z,4.25
2023-05-22T17:33:58.612Z,4.82
2023-05-22T17:36:25.593Z,4.20
2023-05-22T17:38:52.935Z,4.95
2023-05-22T17:41:20.442Z,4.32
2023-05-22T17:43:48.136Z,4.65
2023-05-22T17:46:15.651Z,4.32
2023-05-22T17:51:31.375Z,7.18
2023-05-22T17:54:00.196Z,13.50
2023-05-22T18:04:33.161Z,5.00
2023-05-22T18:07:00.597Z,5.20
2023-05-22T18:09:38.290Z,5.35
2023-05-22T18:12:10.986Z,5.60
2023-05-22T18:14:43.506Z,6.25
2023-05-22T18:17:18.692Z,6.45
2023-05-22T18:19:46.481Z,5.85
2023-05-22T18:22:29.811Z,6.15
2023-05-22T18:24:58.538Z,5.97
2023-05-22T18:35:41.551Z,7.10
2023-05-22T18:38:08.478Z,6.28
2023-05-22T18:40:37.738Z,5.60
2023-05-22T18:43:06.424Z,6.38
2023-05-22T18:45:33.714Z,6.60
2023-05-22T18:48:03.145Z,5.80
2023-05-22T18:53:23.178Z,6.80
2023-05-22T18:55:52.820Z,33.70
2023-05-22T18:58:21.235Z,6.25
2023-05-22T19:00:49.582Z,6.00
2023-05-22T19:03:29.043Z,6.50
2023-05-22T19:05:57.055Z,5.90
2023-05-22T19:08:29.653Z,6.47
2023-05-22T19:10:59.947Z,6.47
2023-05-22T19:13:27.968Z,6.67
2023-05-22T19:16:10.615Z,6.13
2023-05-22T19:39:06.398Z,6.10
2023-05-22T19:41:33.450Z,6.03
2023-05-22T19:44:00.647Z,9.30
2023-05-22T19:51:54.152Z,6.72
2023-05-22T19:54:22.286Z,6.60
2023-05-22T19:56:49.210Z,6.65
2023-05-22T19:59:16.591Z,6.95
2023-05-22T20:01:43.724Z,8.05
2023-05-22T20:04:14.271Z,8.77
2023-05-22T20:06:42.547Z,8.23
2023-05-22T20:09:10.172Z,9.15
2023-05-22T20:11:37.125Z,11.90
2023-05-22T20:14:04.339Z,11.40
2023-05-22T20:16:33.263Z,11.05
2023-05-22T20:19:00.304Z,11.93
2023-05-22T20:21:27.157Z,10.70
2023-05-22T20:23:55.555Z,12.25
2023-05-22T20:26:24.057Z,12.50
2023-05-22T20:28:51.393Z,10.43
2023-05-22T20:31:18.362Z,9.48
2023-05-22T20:33:45.779Z,11.88
2023-05-22T20:36:15.046Z,9.70
2023-05-22T20:38:42.750Z,10.80
2023-05-22T20:41:13.010Z,10.20
2023-05-22T20:43:43.682Z,8.90
2023-05-22T20:46:10.871Z,7.25
2023-05-22T20:48:38.813Z,7.47
2023-05-22T20:51:08.605Z,6.10
2023-05-22T20:53:36.006Z,5.80
2023-05-22T20:56:03.045Z,4.47
2023-05-22T20:58:30.038Z,4.53
2023-05-22T21:00:57.763Z,4.30
2023-05-22T21:03:25.994Z,4.65
2023-05-22T21:05:53.815Z,4.30
2023-05-22T21:08:21.575Z,4.38
2023-05-22T21:10:48.611Z,4.00
2023-05-22T21:13:15.649Z,3.75
2023-05-22T21:15:42.604Z,3.88
2023-05-22T21:18:10.178Z,4.15
2023-05-22T21:20:37.760Z,4.35
2023-05-22T21:23:05.036Z,3.95
2023-05-22T21:25:39.468Z,3.75
2023-05-22T21:28:07.784Z,3.67
2023-05-22T21:30:34.890Z,4.38
2023-05-22T21:33:01.995Z,3.92
2023-05-22T21:35:28.947Z,4.32
2023-05-22T21:37:56.075Z,4.68
2023-05-22T21:40:23.514Z,4.85
2023-05-22T21:42:50.814Z,4.50
2023-05-22T21:45:18.756Z,4.00
2023-05-22T21:47:47.165Z,4.85
2023-05-22T21:50:14.372Z,4.47
2023-05-22T21:52:41.740Z,4.93
2023-05-22T21:55:08.775Z,5.05
2023-05-22T21:57:36.088Z,5.13
2023-05-22T22:00:03.086Z,5.25
2023-05-22T22:02:30.023Z,5.80
2023-05-22T22:04:58.578Z,5.90
2023-05-22T22:07:25.925Z,6.30
2023-05-22T22:09:52.896Z,6.07
2023-05-22T22:12:21.951Z,5.40
2023-05-22T22:14:48.895Z,5.85
2023-05-22T22:17:18.119Z,5.40
2023-05-22T22:19:45.078Z,6.53
2023-05-22T22:22:12.609Z,6.30
2023-05-22T22:24:39.742Z,6.07
2023-05-22T22:27:09.722Z,6.18
2023-05-22T22:29:37.419Z,7.07
2023-05-22T22:32:04.482Z,7.78
2023-05-22T22:34:31.744Z,6.45
2023-05-22T22:36:58.573Z,6.40
2023-05-22T22:39:26.528Z,6.68
2023-05-22T22:41:53.842Z,7.32
2023-05-22T22:44:20.808Z,7.28
2023-05-22T22:46:48.195Z,6.75
2023-05-22T22:49:15.843Z,7.20
2023-05-22T22:51:42.981Z,6.70
2023-05-22T22:54:11.981Z,7.20
2023-05-22T22:56:38.984Z,7.70
2023-05-22T22:59:06.140Z,7.35
2023-05-22T23:01:33.094Z,7.25
2023-05-22T23:04:00.046Z,8.30
2023-05-22T23:06:29.710Z,8.40
2023-05-22T23:08:58.769Z,8.82
2023-05-22T23:11:37.695Z,8.80
2023-05-22T23:14:08.874Z,8.70
2023-05-22T23:16:36.823Z,8.10
2023-05-22T23:19:04.978Z,9.20
2023-05-22T23:21:32.545Z,8.43
2023-05-22T23:24:00.446Z,9.32
2023-05-22T23:26:31.285Z,9.15
2023-05-22T23:29:02.699Z,9.80
2023-05-22T23:33:58.224Z,9.73
2023-05-22T23:36:28.241Z,9.25
2023-05-22T23:38:55.361Z,9.50
2023-05-22T23:41:25.230Z,9.95
2023-05-22T23:43:52.449Z,11.25
2023-05-22T23:46:21.307Z,11.80
2023-05-22T23:48:48.297Z,11.30
2023-05-22T23:51:15.556Z,11.32
2023-05-22T23:53:42.574Z,12.52
2023-05-22T23:56:13.282Z,12.93
2023-05-22T23:58:40.236Z,10.95
